Time;durP1;ratioP1;P1;durP2;ratioP2;P2;SDS_P1;SDS_P2;PMS_P1;PMS_P2;Temp;Humidity;BMP_temperature;BMP_pressure;BME280_temperature;BME280_humidity;BME280_pressure;Samples;Min_cycle;Max_cycle;Signal;HPM_P1;HPM_P2
2023/11/22 00:01:06;;;;;;;8.32;4.43;;;1.40;99.90;;;0.41;100.00;101771.50;5019179;28;20128;-76
2023/11/22 00:03:32;;;;;;;8.15;4.07;;;1.30;99.90;;;0.38;100.00;101779.81;5012771;28;20072;-76
2023/11/22 00:05:58;;;;;;;9.50;4.43;;;1.30;99.90;;;0.41;100.00;101782.25;5015000;28;20115;-76
2023/11/22 00:08:24;;;;;;;7.95;3.80;;;1.30;99.90;;;0.39;100.00;101789.56;5015065;28;20044;-77
2023/11/22 00:10:50;;;;;;;10.43;4.32;;;1.30;99.90;;;0.37;100.00;101783.47;5021311;28;20122;-77
2023/11/22 00:13:15;;;;;;;7.95;4.25;;;1.30;99.90;;;0.30;100.00;101774.22;5016351;28;20038;-77
2023/11/22 00:15:41;;;;;;;10.10;4.78;;;1.30;99.90;;;0.35;100.00;101772.00;5020110;28;20048;-76
2023/11/22 00:18:07;;;;;;;8.25;4.72;;;1.30;99.90;;;0.33;100.00;101782.00;5013815;28;20038;-76
2023/11/22 00:20:33;;;;;;;9.48;4.57;;;1.30;99.90;;;0.21;100.00;101762.38;5022764;28;20034;-76
2023/11/22 00:22:59;;;;;;;8.00;4.40;;;1.20;99.90;;;0.18;100.00;101754.56;5013145;28;20030;-77
2023/11/22 00:25:25;;;;;;;9.85;4.43;;;1.20;99.90;;;0.21;100.00;101757.00;5017179;28;20394;-76
2023/11/22 00:27:51;;;;;;;10.07;4.72;;;1.20;99.90;;;0.14;100.00;101732.47;5012366;28;20026;-77
2023/11/22 00:30:17;;;;;;;10.35;4.90;;;1.10;99.90;;;0.16;100.00;101745.78;5012097;28;20512;-76
2023/11/22 00:32:43;;;;;;;11.38;4.88;;;1.00;99.90;;;0.14;100.00;101748.56;5011324;28;20064;-77
2023/11/22 00:35:09;;;;;;;11.13;4.95;;;1.00;99.90;;;0.11;100.00;101740.75;5015201;28;20116;-76
2023/11/22 00:37:35;;;;;;;9.43;4.35;;;1.00;99.90;;;0.09;100.00;101739.16;5015022;28;20072;-77
2023/11/22 00:40:10;;;;;;;9.30;5.00;;;1.00;99.90;;;0.06;100.00;101732.22;5011634;28;20034;-76
2023/11/22 00:42:42;;;;;;;9.35;4.70;;;0.90;99.90;;;0.03;100.00;101728.91;5017898;28;20518;-76
2023/11/22 00:45:09;;;;;;;9.25;4.65;;;0.90;99.90;;;-0.01;100.00;101717.56;5018757;28;20087;-76
2023/11/22 00:47:37;;;;;;;10.85;4.65;;;0.90;99.90;;;-0.06;100.00;101719.75;5017475;28;20039;-76
2023/11/22 00:50:04;;;;;;;8.68;4.95;;;0.90;99.90;;;-0.15;100.00;101713.28;5011908;28;20117;-76
2023/11/22 00:52:31;;;;;;;10.85;4.80;;;0.80;99.90;;;-0.21;100.00;101703.03;5018918;28;20068;-76
2023/11/22 00:54:57;;;;;;;8.82;4.70;;;0.80;99.90;;;-0.22;100.00;101701.31;5022521;28;20438;-76
2023/11/22 00:57:23;;;;;;;10.25;5.38;;;0.70;99.90;;;-0.20;100.00;101707.44;5026178;28;20499;-76
2023/11/22 00:59:49;;;;;;;8.10;4.50;;;0.70;99.90;;;-0.25;100.00;101696.22;5018329;28;20045;-76
2023/11/22 01:02:16;;;;;;;10.50;5.40;;;0.70;99.90;;;-0.27;100.00;101690.94;5011603;28;20088;-76
2023/11/22 01:04:42;;;;;;;8.55;4.43;;;0.70;99.90;;;-0.25;100.00;101689.03;5013777;28;20034;-77
2023/11/22 01:07:07;;;;;;;12.32;5.40;;;0.70;99.90;;;-0.25;100.00;101697.06;5011306;28;20059;-76
2023/11/22 01:09:33;;;;;;;11.88;5.30;;;0.70;99.90;;;-0.26;100.00;101691.81;5015207;28;20041;-76
2023/11/22 01:12:00;;;;;;;14.35;4.95;;;0.70;99.90;;;-0.30;100.00;101694.75;5018235;28;20112;-76
2023/11/22 01:14:26;;;;;;;11.68;4.72;;;0.70;99.90;;;-0.30;100.00;101700.09;5026258;28;20033;-76
2023/11/22 01:16:54;;;;;;;8.30;4.55;;;0.70;99.90;;;-0.36;100.00;101699.72;5011839;28;20517;-76
2023/11/22 01:19:20;;;;;;;9.55;4.88;;;0.60;99.90;;;-0.39;100.00;101695.47;5011571;28;20038;-76
2023/11/22 01:21:47;;;;;;;13.32;5.05;;;0.50;99.90;;;-0.42;100.00;101697.53;5015444;28;20169;-76
2023/11/22 01:24:13;;;;;;;11.13;5.03;;;0.50;99.90;;;-0.47;100.00;101708.59;5010811;28;20065;-76
2023/11/22 01:26:39;;;;;;;8.68;4.68;;;0.50;99.90;;;-0.47;100.00;101701.41;5026624;28;20120;-74
2023/11/22 01:29:05;;;;;;;15.98;5.93;;;0.50;99.90;;;-0.49;100.00;101689.09;5016924;28;20092;-74
2023/11/22 01:31:32;;;;;;;10.60;5.22;;;0.50;99.90;;;-0.49;100.00;101683.72;5028354;28;20084;-77
2023/11/22 01:33:59;;;;;;;13.90;5.53;;;0.50;99.90;;;-0.46;100.00;101702.25;5019121;28;20111;-77
2023/11/22 01:36:25;;;;;;;11.52;5.20;;;0.50;99.90;;;-0.46;100.00;101697.78;5019861;28;20058;-77
2023/11/22 01:38:52;;;;;;;13.82;5.60;;;0.50;99.90;;;-0.51;100.00;101694.59;5015354;28;20042;-74
2023/11/22 01:41:18;;;;;;;11.68;5.55;;;0.50;99.90;;;-0.53;100.00;101693.00;5018124;28;20065;-74
2023/11/22 01:43:44;;;;;;;11.43;5.60;;;0.50;99.90;;;-0.60;100.00;101688.09;5023596;28;20057;-76
2023/11/22 01:46:22;;;;;;;12.45;5.72;;;0.40;99.90;;;-0.59;100.00;101670.19;5020825;28;20113;-77
2023/11/22 01:48:48;;;;;;;12.05;5.72;;;0.40;99.90;;;-0.67;100.00;101667.25;5019080;28;20574;-73
2023/11/22 01:51:14;;;;;;;9.65;5.07;;;0.30;99.90;;;-0.64;100.00;101688.44;5018744;28;20193;-74
2023/11/22 01:53:41;;;;;;;12.27;5.70;;;0.30;99.90;;;-0.66;100.00;101677.00;5041924;28;20041;-74
2023/11/22 01:56:09;;;;;;;11.85;5.38;;;0.20;99.90;;;-0.74;100.00;101674.91;5014057;28;20038;-75
2023/11/22 01:58:35;;;;;;;10.30;5.18;;;0.10;99.90;;;-0.79;100.00;101683.31;5014178;28;20033;-75
2023/11/22 02:01:02;;;;;;;12.88;5.60;;;0.10;99.90;;;-0.81;100.00;101682.53;5029678;28;20132;-75
2023/11/22 02:03:29;;;;;;;11.23;5.55;;;0.00;99.90;;;-0.78;100.00;101692.19;5023186;28;20557;-75
2023/11/22 02:05:54;;;;;;;15.10;5.45;;;0.10;99.90;;;-0.82;100.00;101691.56;5024715;28;20037;-75
2023/11/22 02:08:20;;;;;;;10.48;5.10;;;0.00;99.90;;;-0.82;100.00;101685.34;5016029;28;20033;-75
2023/11/22 02:11:04;;;;;;;12.00;5.65;;;0.10;99.90;;;-0.88;100.00;101675.94;5014891;28;20046;-74
2023/11/22 02:13:31;;;;;;;14.20;6.03;;;0.00;99.90;;;-0.73;100.00;101685.50;5014510;28;20025;-77
2023/11/22 02:15:58;;;;;;;9.82;4.93;;;0.20;99.90;;;-0.68;100.00;101686.97;5014387;28;20425;-75
2023/11/22 02:18:26;;;;;;;8.63;4.88;;;0.20;99.90;;;-0.67;100.00;101694.06;5014093;28;20115;-75
2023/11/22 02:20:52;;;;;;;12.13;5.55;;;0.30;99.90;;;-0.72;100.00;101702.44;5028472;28;20177;-74
2023/11/22 02:23:18;;;;;;;10.95;5.40;;;0.30;99.90;;;-0.75;100.00;101697.31;5017024;28;20662;-75
2023/11/22 02:25:45;;;;;;;11.57;5.93;;;0.20;99.90;;;-0.78;100.00;101709.13;5014493;28;20464;-75
2023/11/22 02:28:12;;;;;;;9.13;5.28;;;0.20;99.90;;;-0.86;100.00;101711.53;5017404;28;20038;-75
2023/11/22 02:30:38;;;;;;;10.88;5.15;;;0.10;99.90;;;-0.92;100.00;101707.50;5018201;28;20191;-75
2023/11/22 02:33:07;;;;;;;13.23;5.60;;;0.00;99.90;;;-0.92;100.00;101706.63;5029311;28;20104;-76
2023/11/22 02:35:33;;;;;;;10.10;5.05;;;0.00;99.90;;;-0.95;100.00;101704.19;5022812;28;20482;-76
2023/11/22 02:38:00;;;;;;;13.07;5.88;;;0.00;99.90;;;-0.89;100.00;101696.53;5019981;28;20095;-76
2023/11/22 02:40:27;;;;;;;13.38;5.75;;;0.10;99.90;;;-0.94;100.00;101695.19;5017554;28;20032;-76
2023/11/22 02:42:54;;;;;;;11.18;5.05;;;0.00;99.90;;;-0.93;100.00;101691.53;5013362;28;20539;-76
2023/11/22 02:45:38;;;;;;;12.73;6.10;;;0.00;99.90;;;-0.91;100.00;101702.97;5013714;28;20355;-77
2023/11/22 02:48:09;;;;;;;14.95;5.60;;;0.00;99.90;;;-1.01;100.00;101702.81;5025706;28;20038;-76
2023/11/22 02:50:37;;;;;;;13.68;6.05;;;-0.10;99.90;;;-0.96;100.00;101715.88;5022489;28;20037;-75
2023/11/22 02:53:03;;;;;;;21.00;6.07;;;-0.10;99.90;;;-0.99;100.00;101702.72;5023622;28;20179;-76
2023/11/22 02:55:29;;;;;;;12.45;5.65;;;-0.10;99.90;;;-0.84;100.00;101714.09;5008928;28;20045;-77
2023/11/22 02:57:55;;;;;;;14.93;6.55;;;0.10;99.90;;;-0.69;100.00;101717.44;5019225;28;20072;-75
2023/11/22 03:00:21;;;;;;;9.98;5.03;;;0.20;99.90;;;-0.55;100.00;101725.25;5016897;28;20042;-77
2023/11/22 03:02:53;;;;;;;13.75;5.07;;;0.40;99.90;;;-0.51;100.00;101724.09;5013631;28;20091;-77
2023/11/22 03:05:20;;;;;;;10.90;5.78;;;0.50;99.90;;;-0.44;100.00;101729.81;5019799;28;20496;-76
2023/11/22 03:07:47;;;;;;;9.43;4.55;;;0.50;99.90;;;-0.44;100.00;101749.44;5020172;28;20034;-76
2023/11/22 03:10:12;;;;;;;11.02;5.13;;;0.50;99.90;;;-0.45;100.00;101758.47;5013507;28;20034;-80
2023/11/22 03:12:38;;;;;;;8.73;4.68;;;0.50;99.90;;;-0.46;100.00;101754.06;5022794;28;20092;-76
2023/11/22 03:15:07;;;;;;;9.35;4.95;;;0.50;99.90;;;-0.43;100.00;101785.16;5016991;28;20077;-78
2023/11/22 03:17:35;;;;;;;12.98;5.20;;;0.50;99.90;;;-0.42;100.00;101788.69;5019244;28;20046;-77
2023/11/22 03:20:01;;;;;;;10.55;5.32;;;0.50;99.90;;;-0.34;100.00;101807.72;5037469;28;20034;-76
2023/11/22 03:22:30;;;;;;;9.90;4.95;;;0.60;99.90;;;-0.36;100.00;101815.03;5033415;28;20111;-80
2023/11/22 03:24:58;;;;;;;11.40;4.95;;;0.60;99.90;;;-0.33;100.00;101826.41;5026680;28;20544;-77
2023/11/22 03:27:25;;;;;;;9.65;4.20;;;0.60;99.90;;;-0.34;100.00;101846.16;5024317;28;20048;-77
2023/11/22 03:29:51;;;;;;;8.63;4.80;;;0.50;99.90;;;-0.40;100.00;101851.94;5014394;28;20034;-77
2023/11/22 03:32:17;;;;;;;11.18;4.28;;;0.50;99.90;;;-0.40;100.00;101851.09;5016000;28;20400;-76
2023/11/22 03:34:43;;;;;;;12.02;4.90;;;0.50;99.90;;;-0.38;100.00;101858.09;5017103;28;20037;-77
2023/11/22 03:37:09;;;;;;;8.45;4.63;;;0.50;99.90;;;-0.34;100.00;101862.25;5017052;28;20044;-77
2023/11/22 03:39:35;;;;;;;10.70;4.18;;;0.50;99.90;;;-0.41;100.00;101860.97;5028397;28;20038;-76
2023/11/22 03:42:01;;;;;;;12.80;4.50;;;0.50;99.90;;;-0.40;100.00;101870.72;5020355;28;20043;-76
2023/11/22 03:44:27;;;;;;;9.90;4.40;;;0.50;99.90;;;-0.41;100.00;101873.53;5012871;28;20033;-76
2023/11/22 03:46:54;;;;;;;9.77;4.30;;;0.50;99.90;;;-0.38;100.00;101881.34;5013312;28;20038;-78
2023/11/22 03:49:19;;;;;;;10.27;4.30;;;0.40;99.90;;;-0.46;100.00;101885.47;5023392;28;20034;-77
2023/11/22 03:51:47;;;;;;;9.20;4.15;;;0.40;99.90;;;-0.42;100.00;101894.13;5018683;28;20072;-78
2023/11/22 03:54:13;;;;;;;;;;;0.40;99.90;;;-0.43;100.00;101895.09;5012440;28;20044;-78
2023/11/22 03:56:39;;;;;;;8.57;3.45;;;0.40;99.90;;;-0.44;100.00;101898.75;5013741;28;20020;-77
2023/11/22 03:59:05;;;;;;;6.38;3.00;;;0.50;99.90;;;-0.46;100.00;101906.03;5018467;28;20050;-77
2023/11/22 04:01:31;;;;;;;7.40;4.00;;;0.50;99.90;;;-0.47;100.00;101923.97;5016784;28;20537;-78
2023/11/22 04:03:57;;;;;;;8.63;4.07;;;0.50;99.90;;;-0.49;100.00;101933.09;5012554;28;20052;-77
2023/11/22 04:06:23;;;;;;;8.13;3.67;;;0.40;99.90;;;-0.50;100.00;101932.25;5017985;28;20037;-77
2023/11/22 04:08:49;;;;;;;8.15;4.07;;;0.40;99.90;;;-0.57;100.00;101938.16;5012364;28;20096;-77
2023/11/22 04:11:17;;;;;;;8.43;3.85;;;0.30;99.90;;;-0.62;100.00;101939.38;5012434;28;20029;-78
2023/11/22 04:13:43;;;;;;;7.80;3.80;;;0.30;99.90;;;-0.69;100.00;101934.56;5016488;28;20037;-77
2023/11/22 04:16:11;;;;;;;8.98;4.20;;;0.30;99.90;;;-0.75;100.00;101942.06;5019283;28;20034;-78
2023/11/22 04:18:40;;;;;;;7.97;3.70;;;0.20;99.90;;;-0.77;100.00;101945.81;5017745;28;20048;-78
2023/11/22 04:21:06;;;;;;;11.30;3.72;;;0.20;99.90;;;-0.81;100.00;101925.56;5017572;28;20041;-77
2023/11/22 04:23:32;;;;;;;9.27;4.03;;;0.20;99.90;;;-0.88;100.00;101931.38;5019510;28;20310;-80
2023/11/22 04:26:00;;;;;;;9.27;4.05;;;0.10;99.90;;;-0.89;100.00;101936.84;5012605;28;20038;-79
2023/11/22 04:28:29;;;;;;;9.32;4.13;;;0.10;99.90;;;-0.89;100.00;101937.72;5016317;28;20064;-80
2023/11/22 04:30:56;;;;;;;12.57;3.90;;;0.10;99.90;;;-0.96;100.00;101938.25;5021140;28;20045;-79
2023/11/22 04:33:22;;;;;;;9.52;3.97;;;0.00;99.90;;;-0.99;100.00;101942.00;5019112;28;20516;-80
2023/11/22 04:35:49;;;;;;;6.57;3.65;;;-0.10;99.90;;;-0.98;100.00;101948.22;5016380;28;20038;-80
2023/11/22 04:38:15;;;;;;;8.73;3.90;;;-0.10;99.90;;;-1.08;100.00;101938.13;5021274;28;20071;-78
2023/11/22 04:40:42;;;;;;;7.20;3.25;;;-0.10;99.90;;;-1.12;100.00;101944.69;5010881;28;20460;-77
2023/11/22 04:43:08;;;;;;;7.45;4.18;;;-0.10;99.90;;;-1.13;100.00;101945.66;5013166;28;20358;-78
2023/11/22 04:45:34;;;;;;;10.25;4.10;;;-0.10;99.90;;;-1.17;100.00;101936.13;5017800;28;20401;-77
2023/11/22 04:48:00;;;;;;;11.77;4.07;;;-0.10;99.90;;;-1.18;100.00;101939.75;5016709;28;20048;-78
2023/11/22 04:50:26;;;;;;;9.63;4.32;;;-0.10;99.90;;;-1.16;100.00;101928.00;5014258;28;20029;-75
2023/11/22 04:52:52;;;;;;;9.82;4.07;;;-0.10;99.90;;;-1.16;100.00;101917.28;5014419;28;20057;-78
2023/11/22 04:55:19;;;;;;;7.50;4.18;;;-0.10;99.90;;;-1.13;100.00;101921.53;5015626;28;20034;-76
2023/11/22 04:57:46;;;;;;;11.77;4.40;;;-0.10;99.90;;;-1.20;100.00;101915.75;5018181;28;20038;-78
2023/11/22 05:00:12;;;;;;;9.15;4.35;;;-0.10;99.90;;;-1.24;100.00;101921.47;5022185;28;20041;-78
2023/11/22 05:02:39;;;;;;;8.00;3.80;;;-0.10;99.90;;;-1.26;100.00;101912.69;5019201;28;20202;-78
2023/11/22 05:05:07;;;;;;;8.47;3.60;;;-0.20;99.90;;;-1.26;100.00;101910.00;5021728;28;20048;-77
2023/11/22 05:07:32;;;;;;;7.32;3.92;;;-0.20;99.90;;;-1.29;100.00;101896.81;5014918;28;20707;-77
2023/11/22 05:09:58;;;;;;;9.32;4.40;;;-0.20;99.90;;;-1.29;100.00;101881.59;5015111;28;20493;-75
2023/11/22 05:12:24;;;;;;;7.43;3.92;;;-0.30;99.90;;;-1.29;100.00;101889.63;5019110;28;20127;-76
2023/11/22 05:14:50;;;;;;;9.00;4.28;;;-0.30;99.90;;;-1.35;100.00;101888.22;5021096;28;20139;-75
2023/11/22 05:17:15;;;;;;;8.32;4.05;;;-0.40;99.90;;;-1.37;100.00;101890.16;5017485;28;20038;-75
2023/11/22 05:19:41;;;;;;;10.00;4.68;;;-0.40;99.90;;;-1.47;100.00;101889.94;5020791;28;20052;-75
2023/11/22 05:22:07;;;;;;;11.95;4.47;;;-0.60;99.90;;;-1.55;100.00;101907.53;5011135;28;20117;-76
2023/11/22 05:24:34;;;;;;;9.70;4.50;;;-0.80;99.90;;;-1.75;100.00;101910.59;5011016;28;20052;-75
2023/11/22 05:27:01;;;;;;;9.00;3.88;;;-1.00;99.90;;;-1.95;100.00;101916.47;5011163;28;20037;-76
2023/11/22 05:29:27;;;;;;;8.23;4.40;;;-1.20;99.90;;;-2.13;100.00;101924.75;5016050;28;20065;-75
2023/11/22 05:31:53;;;;;;;8.23;4.00;;;-1.30;99.90;;;-2.24;100.00;101930.81;5015245;28;20049;-76
2023/11/22 05:34:19;;;;;;;8.85;4.82;;;-1.40;99.90;;;-2.29;100.00;101938.28;5012439;28;20179;-77
2023/11/22 05:36:45;;;;;;;8.73;4.50;;;-1.60;99.90;;;-2.38;100.00;101939.75;5017436;28;20037;-78
2023/11/22 05:39:11;;;;;;;9.35;4.15;;;-1.70;99.90;;;-2.52;100.00;101929.94;5015714;28;20046;-78
2023/11/22 05:41:38;;;;;;;10.10;4.32;;;-1.90;99.90;;;-2.63;100.00;101929.81;5015514;28;20045;-78
2023/11/22 05:44:04;;;;;;;8.15;4.50;;;-2.00;99.90;;;-2.66;100.00;101929.97;5023549;28;20029;-78
2023/11/22 05:46:30;;;;;;;10.90;4.05;;;-2.10;99.90;;;-2.61;100.00;101927.88;5015818;28;20036;-79
2023/11/22 05:48:55;;;;;;;9.63;4.20;;;-2.00;99.90;;;-2.35;100.00;101917.31;5014524;28;20436;-78
2023/11/22 05:51:21;;;;;;;7.68;4.03;;;-1.60;99.90;;;-2.20;100.00;101904.75;5014828;28;20383;-79
2023/11/22 05:53:47;;;;;;;7.93;4.45;;;-1.50;99.90;;;-2.21;100.00;101895.84;5017013;28;20058;-78
2023/11/22 05:56:13;;;;;;;10.85;4.57;;;-1.30;99.90;;;-2.07;100.00;101899.44;5016038;28;20041;-79
2023/11/22 05:58:39;;;;;;;10.88;4.68;;;-1.30;99.90;;;-1.94;100.00;101902.13;5022540;28;20037;-79
2023/11/22 06:01:05;;;;;;;11.05;5.03;;;-1.10;99.90;;;-1.82;100.00;101900.44;5012372;28;20133;-79
2023/11/22 06:03:32;;;;;;;9.95;5.10;;;-1.00;99.90;;;-1.82;100.00;101912.00;5019968;28;20504;-79
2023/11/22 06:05:58;;;;;;;10.20;4.78;;;-0.90;99.90;;;-1.84;100.00;101924.63;5011320;28;20034;-76
2023/11/22 06:08:25;;;;;;;13.75;4.90;;;-0.90;99.90;;;-1.82;100.00;101927.19;5017931;28;20489;-77
2023/11/22 06:10:51;;;;;;;8.18;4.18;;;-0.90;99.90;;;-1.77;100.00;101935.75;5019126;28;20053;-77
2023/11/22 06:13:18;;;;;;;9.07;4.38;;;-0.90;99.90;;;-1.74;100.00;101935.56;5014344;28;20063;-77
2023/11/22 06:15:43;;;;;;;10.40;4.90;;;-0.80;99.90;;;-1.74;100.00;101930.19;5015612;28;20108;-77
2023/11/22 06:18:09;;;;;;;13.13;5.45;;;-0.70;99.90;;;-1.68;100.00;101935.13;5011562;28;20026;-78
2023/11/22 06:20:35;;;;;;;10.77;4.78;;;-0.70;99.90;;;-1.71;100.00;101919.28;5019916;28;20401;-77
2023/11/22 06:23:01;;;;;;;10.25;5.00;;;-0.70;99.90;;;-1.70;100.00;101926.34;5014650;28;20053;-78
2023/11/22 06:25:27;;;;;;;13.02;5.95;;;-0.80;99.90;;;-1.67;100.00;101923.47;5020605;28;20041;-77
2023/11/22 06:27:52;;;;;;;27.52;8.70;;;-0.80;99.90;;;-1.65;100.00;101920.69;5022837;28;20098;-77
2023/11/22 06:30:19;;;;;;;15.90;7.57;;;-0.70;99.90;;;-1.67;100.00;101930.66;5015025;28;20037;-76
2023/11/22 06:32:45;;;;;;;13.65;5.63;;;-0.80;99.90;;;-1.68;100.00;101934.28;5018475;28;20041;-75
2023/11/22 06:35:14;;;;;;;9.63;4.40;;;-0.80;99.90;;;-1.76;100.00;101924.94;5019340;28;20042;-77
2023/11/22 06:37:41;;;;;;;10.88;4.57;;;-0.80;99.90;;;-1.73;100.00;101931.91;5029026;28;20053;-75
2023/11/22 06:40:12;;;;;;;10.88;5.05;;;-0.90;99.90;;;-1.79;100.00;101932.34;5027533;28;20553;-77
2023/11/22 06:42:38;;;;;;;12.73;4.97;;;-0.90;99.90;;;-1.80;100.00;101936.81;5025681;28;20041;-76
2023/11/22 06:45:09;;;;;;;11.00;4.65;;;-1.00;99.90;;;-1.78;100.00;101928.69;5025380;28;20126;-75
2023/11/22 06:47:36;;;;;;;10.25;4.72;;;-1.00;99.90;;;-1.79;100.00;101933.19;5022851;28;20109;-75
2023/11/22 06:50:08;;;;;;;9.27;4.55;;;-1.00;99.90;;;-1.85;100.00;101922.91;5022502;28;20047;-76
2023/11/22 06:52:36;;;;;;;8.98;4.85;;;-1.10;99.90;;;-1.99;100.00;101929.19;5041169;28;20032;-75
2023/11/22 06:55:02;;;;;;;10.90;4.40;;;-1.30;99.90;;;-2.11;100.00;101932.69;5026473;28;20509;-76
2023/11/22 06:57:28;;;;;;;8.20;4.10;;;-1.50;99.90;;;-2.23;100.00;101932.53;5025409;28;20040;-75
2023/11/22 06:59:58;;;;;;;13.07;4.65;;;-1.60;99.90;;;-2.28;100.00;101912.38;5029212;28;20123;-76
2023/11/22 07:02:24;;;;;;;10.98;4.53;;;-1.60;99.90;;;-2.25;100.00;101926.44;5024200;28;20425;-75
2023/11/22 07:04:50;;;;;;;10.65;4.82;;;-1.70;99.90;;;-2.28;100.00;101931.97;5021146;28;20065;-75
2023/11/22 07:07:15;;;;;;;9.32;4.50;;;-1.70;99.90;;;-2.18;100.00;101930.41;5017970;28;20061;-75
2023/11/22 07:09:46;;;;;;;8.20;4.65;;;-1.60;99.90;;;-2.14;100.00;101935.53;5015231;28;20042;-75
2023/11/22 07:12:12;;;;;;;11.50;4.95;;;-1.60;99.90;;;-2.07;100.00;101924.34;5020679;28;20129;-76
2023/11/22 07:14:38;;;;;;;10.27;5.13;;;-1.50;99.90;;;-1.98;100.00;101912.16;5027364;28;20095;-75
2023/11/22 07:17:06;;;;;;;10.77;5.15;;;-1.40;99.90;;;-1.91;100.00;101905.44;5022816;28;20037;-75
2023/11/22 07:19:37;;;;;;;9.13;4.70;;;-1.30;99.90;;;-1.81;100.00;101894.13;5022393;28;20037;-75
2023/11/22 07:22:10;;;;;;;13.27;4.90;;;-1.30;99.90;;;-1.75;100.00;101886.50;5018722;28;20064;-76
2023/11/22 07:24:36;;;;;;;10.63;4.80;;;-1.10;99.90;;;-1.66;100.00;101887.69;5022472;28;20768;-75
2023/11/22 07:27:02;;;;;;;14.07;5.22;;;-0.90;99.90;;;-1.51;100.00;101885.78;5013351;28;20038;-74
2023/11/22 07:29:29;;;;;;;10.85;5.03;;;-0.90;99.90;;;-1.39;100.00;101877.88;5023593;28;20029;-74
2023/11/22 07:31:56;;;;;;;10.65;5.70;;;-0.80;99.90;;;-1.26;100.00;101878.69;5028492;28;20171;-74
2023/11/22 07:34:23;;;;;;;11.77;4.85;;;-0.70;99.90;;;-1.26;100.00;101867.16;5013489;28;20036;-74
2023/11/22 07:36:50;;;;;;;13.02;5.97;;;-0.60;99.90;;;-1.29;100.00;101870.03;5018978;28;20113;-75
2023/11/22 07:39:19;;;;;;;12.53;5.23;;;-0.50;99.90;;;-1.28;100.00;101866.41;5034673;28;20410;-74
2023/11/22 07:41:45;;;;;;;15.32;5.88;;;-0.50;99.90;;;-1.20;100.00;101864.03;5021495;28;20033;-74
2023/11/22 07:44:11;;;;;;;9.88;5.68;;;-0.40;99.90;;;-1.12;100.00;101866.16;5015604;28;20514;-75
2023/11/22 07:46:37;;;;;;;13.43;5.88;;;-0.30;99.90;;;-1.03;100.00;101873.53;5028303;28;20088;-74
2023/11/22 07:49:03;;;;;;;12.75;6.35;;;-0.20;99.90;;;-0.96;100.00;101885.50;5015604;28;20064;-74
2023/11/22 07:51:29;;;;;;;14.13;6.30;;;-0.20;99.90;;;-0.79;100.00;101886.13;5017360;28;20441;-74
2023/11/22 07:53:55;;;;;;;13.65;6.53;;;-0.20;99.90;;;-0.70;100.00;101895.31;5013287;28;20057;-73
2023/11/22 07:56:21;;;;;;;12.43;6.03;;;-0.10;99.90;;;-0.55;100.00;101896.84;5018993;28;20033;-74
2023/11/22 07:58:46;;;;;;;14.07;6.40;;;0.00;99.90;;;-0.46;100.00;101912.28;5023760;28;20033;-74
2023/11/22 08:01:13;;;;;;;13.50;6.93;;;0.10;99.90;;;-0.33;100.00;101916.72;5032813;28;20385;-73
2023/11/22 08:03:45;;;;;;;15.23;6.97;;;0.20;99.90;;;-0.34;100.00;101915.00;5019231;28;20505;-74
2023/11/22 08:06:13;;;;;;;16.13;6.93;;;0.20;99.90;;;-0.44;100.00;101939.84;5024196;28;20061;-73
2023/11/22 08:08:39;;;;;;;15.50;6.63;;;0.30;99.90;;;-0.56;100.00;101948.75;5016360;28;20050;-73
2023/11/22 08:11:14;;;;;;;13.38;6.63;;;0.20;99.90;;;-0.58;100.00;101958.75;5015597;28;20042;-73
2023/11/22 08:13:42;;;;;;;14.13;6.45;;;0.20;99.90;;;-0.31;100.00;101971.09;5014993;28;20042;-74
2023/11/22 08:16:09;;;;;;;10.93;5.93;;;0.30;99.90;;;-0.08;100.00;101984.66;5015859;28;20069;-74
2023/11/22 08:18:34;;;;;;;13.45;6.38;;;0.40;99.90;;;0.06;100.00;102003.28;5018874;28;20045;-73
2023/11/22 08:21:00;;;;;;;14.65;5.90;;;0.50;99.90;;;0.18;100.00;102022.09;5018679;28;20041;-74
2023/11/22 08:23:30;;;;;;;12.40;5.57;;;0.60;99.90;;;0.34;100.00;102029.84;5012806;28;20037;-74
2023/11/22 08:25:56;;;;;;;14.18;5.93;;;0.80;99.90;;;0.47;100.00;102059.31;5013006;28;20075;-74
2023/11/22 08:28:22;;;;;;;11.25;5.10;;;0.80;99.90;;;0.46;100.00;102074.59;5012735;28;20048;-74
2023/11/22 08:30:48;;;;;;;9.38;5.10;;;1.00;99.90;;;0.68;100.00;102086.41;5012811;28;20448;-74
2023/11/22 08:33:14;;;;;;;11.18;5.43;;;1.10;99.90;;;0.79;100.00;102107.94;5012844;28;20458;-74
2023/11/22 08:35:40;;;;;;;11.18;5.25;;;1.10;99.90;;;1.03;100.00;102130.34;5014455;28;20378;-74
2023/11/22 08:38:09;;;;;;;10.15;4.97;;;1.40;99.90;;;1.19;100.00;102133.59;5017604;28;20037;-74
2023/11/22 08:40:36;;;;;;;12.80;4.82;;;1.50;99.90;;;1.34;100.00;102161.13;5016488;28;20034;-74
2023/11/22 08:43:04;;;;;;;7.90;4.70;;;1.70;99.90;;;1.46;100.00;102174.59;5023123;28;20041;-75
2023/11/22 08:45:31;;;;;;;10.37;4.67;;;1.80;99.90;;;1.55;100.00;102181.97;5015912;28;20045;-74
2023/11/22 08:47:58;;;;;;;8.67;4.57;;;1.90;99.90;;;1.77;100.00;102167.66;5024394;28;20790;-75
2023/11/22 08:50:24;;;;;;;9.32;4.75;;;2.10;99.90;;;1.83;100.00;102172.56;5012783;28;20616;-74
2023/11/22 08:52:52;;;;;;;9.80;4.63;;;2.20;99.90;;;1.76;100.00;102181.25;5018451;28;20099;-74
2023/11/22 08:55:22;;;;;;;8.43;3.78;;;2.30;99.90;;;1.47;100.00;102187.09;5018140;28;20432;-75
2023/11/22 08:57:50;;;;;;;8.77;3.90;;;2.30;99.90;;;1.17;100.00;102197.38;5018701;28;20046;-74
2023/11/22 09:00:22;;;;;;;9.10;4.00;;;2.20;99.90;;;1.20;100.00;102220.50;5018370;28;20041;-75
2023/11/22 09:02:49;;;;;;;7.15;3.22;;;2.10;99.90;;;1.51;100.00;102210.09;5022641;28;20064;-74
2023/11/22 09:05:16;;;;;;;7.25;3.83;;;2.10;99.90;;;1.21;100.00;102193.47;5012483;28;20036;-74
2023/11/22 09:07:44;;;;;;;7.53;3.78;;;2.20;99.90;;;1.46;100.00;102196.09;5018815;28;20191;-75
2023/11/22 09:10:11;;;;;;;;;;;2.30;99.90;;;1.38;100.00;102191.34;5012531;28;20033;-75
2023/11/22 09:12:42;;;;;;;8.05;3.63;;;2.30;99.90;;;1.06;100.00;102205.38;5017471;28;19921;-75
2023/11/22 09:15:17;;;;;;;7.65;3.65;;;2.20;99.90;;;1.17;100.00;102210.81;5020629;28;20037;-75
2023/11/22 09:17:45;;;;;;;7.38;3.75;;;2.20;99.90;;;1.27;100.00;102203.75;5012360;28;20053;-76
2023/11/22 09:20:16;;;;;;;6.82;3.75;;;2.30;99.90;;;1.20;100.00;102205.22;5012412;28;20046;-76
2023/11/22 09:22:50;;;;;;;7.53;3.85;;;2.40;99.90;;;1.31;100.00;102215.16;5018979;28;20041;-76
2023/11/22 09:25:16;;;;;;;8.20;3.88;;;2.50;99.90;;;1.39;100.00;102217.25;5012034;28;20033;-76
2023/11/22 09:27:47;;;;;;;7.68;4.10;;;2.50;99.90;;;1.36;100.00;102212.97;5017938;28;20061;-76
2023/11/22 09:30:32;;;;;;;9.63;4.72;;;2.60;99.90;;;0.91;100.00;102213.66;5015622;28;20037;-76
2023/11/22 09:33:03;;;;;;;7.35;4.50;;;2.30;99.90;;;0.98;100.00;102219.44;5011655;28;20433;-76
2023/11/22 09:35:31;;;;;;;9.80;4.65;;;2.30;99.90;;;0.97;100.00;102205.13;5012226;28;20037;-76
2023/11/22 09:37:59;;;;;;;9.43;4.82;;;2.40;99.90;;;1.02;100.00;102212.84;5016397;28;20045;-76
2023/11/22 09:40:27;;;;;;;7.82;4.38;;;2.50;99.90;;;1.31;100.00;102199.03;5017635;28;20049;-76
2023/11/22 09:42:53;;;;;;;;;;;2.60;99.90;;;1.34;100.00;102214.91;5013850;28;20129;-76
2023/11/22 09:45:20;;;;;;;9.98;4.40;;;2.60;99.90;;;1.15;100.00;102208.25;5022301;28;20355;-78
2023/11/22 09:47:47;;;;;;;8.93;4.70;;;2.50;99.90;;;1.09;100.00;102206.03;5019440;28;20111;-78
2023/11/22 09:50:47;;;;;;;8.38;5.20;;;2.40;99.90;;;1.25;100.00;102188.75;5018630;28;20378;-78
2023/11/22 09:53:34;;;;;;;7.93;4.15;;;2.50;99.90;;;1.37;100.00;102189.63;5022525;28;20049;-77
2023/11/22 09:56:03;;;;;;;9.95;4.68;;;2.60;99.90;;;1.59;100.00;102199.56;5022860;28;20539;-76
2023/11/22 09:58:35;;;;;;;9.35;4.80;;;2.60;99.90;;;1.64;100.00;102204.59;5023583;28;20034;-77
2023/11/22 10:01:01;;;;;;;10.23;4.70;;;2.80;99.90;;;1.49;100.00;102212.88;5019960;28;20505;-76
2023/11/22 10:03:30;;;;;;;7.57;4.22;;;2.80;99.90;;;1.21;100.00;102217.69;5030356;28;20493;-76
2023/11/22 10:05:58;;;;;;;6.72;3.83;;;2.70;99.90;;;1.48;100.00;102213.84;5014750;28;20598;-77
2023/11/22 10:08:29;;;;;;;7.97;4.80;;;2.70;99.90;;;2.06;100.00;102214.78;5016081;28;20489;-78
2023/11/22 10:10:56;;;;;;;9.27;4.75;;;3.00;99.90;;;2.20;100.00;102222.63;5017835;28;20118;-79